Bushyhead, Oklahoma
Current Conditions -  °F | °C
As of 11:15 AM on Sunday 23 Nov 2014 (Local Time) from KGCM Reporting Station
Broken Clouds Broken Clouds  
Wind Chill: 61°   Ceiling: 1500
Heat Index: 61°   Visibility: 10mi
Dew Point: 55°   Wind: 17mph
Humidity: 82%   Direction: 190°S
Pressure: 29.43"   Gusts: 23mph
Location:  36.5486°N, 95.4793°W
Report Text: KGCM 231715Z AUTO 19015G20KT 10SM BKN015 16/13 A2943 RMK AO2
Loading
Personal Weather Stations






























Interactive Weather Map New forecast layout! Learn more

10-Day Weather Forecast

Advertisements
Track Severe Weather on mobile